createdAt,value
2022-09-07T00:01:15.406Z,57.37
2022-09-07T00:06:20.385Z,58.03
2022-09-07T00:11:25.740Z,57.13
2022-09-07T00:16:32.301Z,57.13
2022-09-07T00:21:38.762Z,58.00
2022-09-07T00:26:44.505Z,56.55
2022-09-07T00:31:50.166Z,56.73
2022-09-07T00:36:56.137Z,57.27
2022-09-07T00:42:01.261Z,55.80
2022-09-07T00:47:09.807Z,57.23
2022-09-07T00:52:17.458Z,56.67
2022-09-07T00:57:23.779Z,57.13
2022-09-07T01:02:29.179Z,56.92
2022-09-07T01:07:35.745Z,56.43
2022-09-07T01:12:40.943Z,55.98
2022-09-07T01:17:55.909Z,56.53
2022-09-07T01:23:32.356Z,57.30
2022-09-07T01:28:38.934Z,57.27
2022-09-07T01:34:08.006Z,56.70
2022-09-07T01:39:14.484Z,56.77
2022-09-07T01:44:37.045Z,57.03
2022-09-07T01:49:45.473Z,57.33
2022-09-07T01:54:53.898Z,56.17
2022-09-07T02:00:11.512Z,56.83
2022-09-07T02:05:22.664Z,57.57
2022-09-07T02:10:33.706Z,56.57
2022-09-07T02:15:57.349Z,57.13
2022-09-07T02:21:04.897Z,57.90
2022-09-07T02:26:12.877Z,57.57
2022-09-07T02:31:18.651Z,56.97
2022-09-07T02:36:29.570Z,57.43
2022-09-07T02:41:38.316Z,55.93
2022-09-07T02:46:55.304Z,56.03
2022-09-07T02:52:14.792Z,55.47
2022-09-07T02:57:41.945Z,56.90
2022-09-07T03:02:52.766Z,57.13
2022-09-07T03:08:18.621Z,56.90
2022-09-07T03:13:27.681Z,56.20
2022-09-07T03:18:33.198Z,57.57
2022-09-07T03:23:38.467Z,56.73
2022-09-07T03:28:43.904Z,57.03
2022-09-07T03:33:49.021Z,57.07
2022-09-07T03:38:54.523Z,56.27
2022-09-07T03:44:07.819Z,55.53
2022-09-07T03:49:13.389Z,55.40
2022-09-07T03:54:19.026Z,56.60
2022-09-07T03:59:24.496Z,56.27
2022-09-07T04:04:31.532Z,55.53
2022-09-07T04:09:36.531Z,56.40
2022-09-07T04:14:42.168Z,56.03
2022-09-07T04:19:47.082Z,56.73
2022-09-07T04:24:53.322Z,54.63
2022-09-07T04:29:58.938Z,55.35
2022-09-07T04:35:03.917Z,57.27
2022-09-07T04:40:09.462Z,56.40
2022-09-07T04:45:15.238Z,56.43
2022-09-07T04:50:21.038Z,56.13
2022-09-07T04:55:26.377Z,57.67
2022-09-07T05:00:32.568Z,58.08
2022-09-07T05:05:39.235Z,55.90
2022-09-07T05:10:54.328Z,56.20
2022-09-07T05:16:00.712Z,56.87
2022-09-07T05:21:12.548Z,58.17
2022-09-07T05:26:18.715Z,58.05
2022-09-07T05:31:25.084Z,58.13
2022-09-07T05:36:31.534Z,57.48
2022-09-07T05:41:36.623Z,57.47
2022-09-07T05:46:41.668Z,57.40
2022-09-07T05:51:46.995Z,58.73
2022-09-07T05:56:53.473Z,60.10
2022-09-07T06:01:58.458Z,60.30
2022-09-07T06:12:10.901Z,58.37
2022-09-07T06:17:16.340Z,60.07
2022-09-07T06:22:22.042Z,60.40
2022-09-07T06:27:26.957Z,62.87
2022-09-07T06:37:40.534Z,61.93
2022-09-07T06:42:46.834Z,63.52
2022-09-07T06:47:54.805Z,60.83
2022-09-07T06:58:08.492Z,60.30
2022-09-07T07:03:14.737Z,61.57
2022-09-07T07:08:19.697Z,62.15
2022-09-07T07:13:25.750Z,60.60
2022-09-07T07:18:31.767Z,61.90
2022-09-07T07:23:37.514Z,66.02
2022-09-07T07:29:00.326Z,64.07
2022-09-07T07:33:53.639Z,64.03
2022-09-07T07:49:10.863Z,63.48
2022-09-07T07:54:16.593Z,64.00
2022-09-07T07:59:22.298Z,62.23
2022-09-07T08:04:28.782Z,61.50
2022-09-07T08:14:44.194Z,62.15
2022-09-07T08:19:49.285Z,61.43
2022-09-07T08:24:55.631Z,62.03
2022-09-07T08:35:07.248Z,62.53
2022-09-07T08:40:19.085Z,61.25
2022-09-07T08:45:30.442Z,62.60
2022-09-07T08:50:51.164Z,61.00
2022-09-07T08:56:09.907Z,60.60
2022-09-07T09:01:34.499Z,61.30
2022-09-07T09:06:31.294Z,60.92
2022-09-07T09:12:02.385Z,61.60
2022-09-07T09:17:14.505Z,60.93
2022-09-07T09:22:25.665Z,61.70
2022-09-07T09:27:31.258Z,62.30
2022-09-07T09:32:42.304Z,61.60
2022-09-07T09:37:48.056Z,61.15
2022-09-07T09:48:12.345Z,60.97
2022-09-07T09:53:26.663Z,62.73
2022-09-07T10:04:01.361Z,61.68
2022-09-07T10:08:59.804Z,61.50
2022-09-07T10:14:06.447Z,61.47
2022-09-07T10:19:31.316Z,62.47
2022-09-07T10:24:39.760Z,62.17
2022-09-07T10:29:44.890Z,61.77
2022-09-07T10:35:09.784Z,61.98
2022-09-07T10:40:39.529Z,63.07
2022-09-07T10:46:04.086Z,62.00
2022-09-07T10:51:15.001Z,61.73
2022-09-07T10:56:33.245Z,62.98
2022-09-07T11:01:58.640Z,63.23
2022-09-07T11:07:14.955Z,62.48
2022-09-07T11:12:33.851Z,62.62
2022-09-07T11:17:53.138Z,62.30
2022-09-07T11:23:07.194Z,62.93
2022-09-07T11:28:26.086Z,62.70
2022-09-07T11:33:39.125Z,62.67
2022-09-07T11:38:48.460Z,61.47
2022-09-07T11:44:09.763Z,62.10
2022-09-07T11:49:23.606Z,63.20
2022-09-07T11:54:32.099Z,62.57
2022-09-07T11:59:56.809Z,62.53
2022-09-07T12:05:26.062Z,62.33
2022-09-07T12:10:40.379Z,62.10
2022-09-07T12:15:57.533Z,61.67
2022-09-07T12:21:02.862Z,63.03
2022-09-07T12:31:21.489Z,62.45
2022-09-07T12:36:31.452Z,62.55
2022-09-07T12:41:47.321Z,61.97
2022-09-07T12:46:57.688Z,60.95
2022-09-07T12:52:16.010Z,61.93
2022-09-07T12:57:32.665Z,62.43
2022-09-07T13:03:49.528Z,62.58
2022-09-07T13:08:30.544Z,63.53
2022-09-07T13:18:47.038Z,63.27
2022-09-07T13:29:39.137Z,61.50
2022-09-07T13:34:55.233Z,61.73
2022-09-07T13:40:03.479Z,61.97
2022-09-07T13:45:10.920Z,61.20
2022-09-07T13:50:39.914Z,61.63
2022-09-07T13:55:48.315Z,64.00
2022-09-07T14:01:03.206Z,61.57
2022-09-07T14:06:19.630Z,62.17
2022-09-07T14:11:43.617Z,61.57
2022-09-07T14:16:54.561Z,62.20
2022-09-07T14:22:05.682Z,62.30
2022-09-07T14:27:37.861Z,61.93
2022-09-07T14:32:44.165Z,61.75
2022-09-07T14:37:50.716Z,62.13
2022-09-07T14:42:58.249Z,61.83
2022-09-07T14:48:06.541Z,63.03
2022-09-07T14:58:24.642Z,61.00
2022-09-07T15:03:34.404Z,61.83
2022-09-07T15:08:47.396Z,61.10
2022-09-07T15:13:58.465Z,60.43
2022-09-07T15:19:22.145Z,60.97
2022-09-07T15:24:28.529Z,60.37
2022-09-07T15:29:34.029Z,60.97
2022-09-07T15:34:39.124Z,59.63
2022-09-07T15:39:44.874Z,61.33
2022-09-07T15:44:50.619Z,61.10
2022-09-07T15:49:55.797Z,60.63
2022-09-07T15:55:01.371Z,61.53
2022-09-07T16:05:13.452Z,60.63
2022-09-07T16:10:19.563Z,60.30
2022-09-07T16:15:27.074Z,60.67
2022-09-07T16:20:32.525Z,60.53
2022-09-07T16:25:38.712Z,60.52
2022-09-07T16:30:44.844Z,60.67
2022-09-07T16:41:06.053Z,60.73
2022-09-07T16:46:17.562Z,59.58
2022-09-07T16:51:24.176Z,59.43
2022-09-07T16:56:36.905Z,60.10
2022-09-07T17:01:40.157Z,59.27
2022-09-07T17:06:45.986Z,59.70
2022-09-07T17:11:52.077Z,59.20
2022-09-07T17:16:58.186Z,59.67
2022-09-07T17:22:05.115Z,58.83
2022-09-07T17:27:13.369Z,58.87
2022-09-07T17:32:26.234Z,60.52
2022-09-07T17:37:25.854Z,58.85
2022-09-07T17:47:39.145Z,61.63
2022-09-07T17:52:45.910Z,61.37
2022-09-07T17:57:51.833Z,60.47
2022-09-07T18:02:58.929Z,59.98
2022-09-07T18:08:05.228Z,60.88
2022-09-07T18:13:11.465Z,59.63
2022-09-07T18:23:23.877Z,59.80
2022-09-07T18:33:36.761Z,59.03
2022-09-07T18:38:42.385Z,59.30
2022-09-07T18:48:54.351Z,61.88
2022-09-07T18:53:59.771Z,64.33
2022-09-07T18:59:06.674Z,61.60
2022-09-07T19:04:12.609Z,59.75
2022-09-07T19:09:17.455Z,60.70
2022-09-07T19:14:22.708Z,66.07
2022-09-07T19:19:28.885Z,60.98
2022-09-07T19:24:35.636Z,63.03
2022-09-07T19:29:41.040Z,62.88
2022-09-07T19:34:47.422Z,61.73
2022-09-07T19:39:55.193Z,60.63
2022-09-07T19:45:00.832Z,62.60
2022-09-07T19:50:06.946Z,62.50
2022-09-07T19:55:13.120Z,75.05
2022-09-07T20:05:23.933Z,73.87
2022-09-07T20:10:30.179Z,60.43
2022-09-07T20:15:38.855Z,60.93
2022-09-07T20:20:44.728Z,60.60
2022-09-07T20:26:01.935Z,59.80
2022-09-07T20:31:11.334Z,59.60
2022-09-07T20:36:19.400Z,60.03
2022-09-07T20:41:29.716Z,62.67
2022-09-07T20:46:35.206Z,61.37
2022-09-07T20:51:41.405Z,60.20
2022-09-07T20:56:47.915Z,59.03
2022-09-07T21:01:53.274Z,59.00
2022-09-07T21:07:00.259Z,58.90
2022-09-07T21:12:06.539Z,59.33
2022-09-07T21:17:12.457Z,59.20
2022-09-07T21:22:18.546Z,59.03
2022-09-07T21:27:25.328Z,61.40
2022-09-07T21:32:31.722Z,60.08
2022-09-07T21:37:38.221Z,60.05
2022-09-07T21:42:43.850Z,59.67
2022-09-07T21:47:49.122Z,60.47
2022-09-07T21:52:54.656Z,60.15
2022-09-07T21:58:00.214Z,60.93
2022-09-07T22:03:05.415Z,61.07
2022-09-07T22:08:11.179Z,59.45
2022-09-07T22:13:16.790Z,57.93
2022-09-07T22:18:22.093Z,58.10
2022-09-07T22:23:27.794Z,59.27
2022-09-07T22:28:33.552Z,58.98
2022-09-07T22:33:39.310Z,61.20
2022-09-07T22:38:46.703Z,59.13
2022-09-07T22:43:52.423Z,60.10
2022-09-07T22:48:59.213Z,59.80
2022-09-07T22:54:05.057Z,59.20
2022-09-07T22:59:10.518Z,59.23
2022-09-07T23:04:15.490Z,58.05
2022-09-07T23:09:20.935Z,58.83
2022-09-07T23:14:27.547Z,60.23
2022-09-07T23:19:32.397Z,59.30
2022-09-07T23:24:39.328Z,59.53
2022-09-07T23:29:45.390Z,58.43
2022-09-07T23:34:51.000Z,59.73
2022-09-07T23:39:56.244Z,59.33
2022-09-07T23:45:01.704Z,59.35
2022-09-07T23:50:08.097Z,58.77
2022-09-07T23:55:14.836Z,59.00
